sensor_id;sensor_type;location;lat;lon;timestamp;temperature;humidity
43607;DHT22;29197;44.788;10.366;2022-11-25T00:01:08;9.10;99.90
43607;DHT22;29197;44.788;10.366;2022-11-25T00:03:59;9.10;99.90
43607;DHT22;29197;44.788;10.366;2022-11-25T00:06:49;9.10;99.90
43607;DHT22;29197;44.788;10.366;2022-11-25T00:09:39;9.00;99.90
43607;DHT22;29197;44.788;10.366;2022-11-25T00:12:28;9.00;99.90
43607;DHT22;29197;44.788;10.366;2022-11-25T00:15:18;9.00;99.90
43607;DHT22;29197;44.788;10.366;2022-11-25T00:18:08;9.00;99.90
43607;DHT22;29197;44.788;10.366;2022-11-25T00:20:58;8.90;99.90
43607;DHT22;29197;44.788;10.366;2022-11-25T00:23:53;8.70;99.90
43607;DHT22;29197;44.788;10.366;2022-11-25T00:26:43;8.80;99.90
43607;DHT22;29197;44.788;10.366;2022-11-25T00:29:33;8.80;99.90
43607;DHT22;29197;44.788;10.366;2022-11-25T00:32:22;8.90;99.90
43607;DHT22;29197;44.788;10.366;2022-11-25T00:35:14;9.00;99.90
43607;DHT22;29197;44.788;10.366;2022-11-25T00:38:04;9.00;99.90
43607;DHT22;29197;44.788;10.366;2022-11-25T00:40:53;9.00;99.90
43607;DHT22;29197;44.788;10.366;2022-11-25T00:44:04;9.00;99.90
43607;DHT22;29197;44.788;10.366;2022-11-25T00:47:11;9.00;99.90
43607;DHT22;29197;44.788;10.366;2022-11-25T00:50:01;9.00;99.90
43607;DHT22;29197;44.788;10.366;2022-11-25T00:52:52;9.00;99.90
43607;DHT22;29197;44.788;10.366;2022-11-25T00:55:42;9.00;99.90
43607;DHT22;29197;44.788;10.366;2022-11-25T00:58:48;8.70;99.90
43607;DHT22;29197;44.788;10.366;2022-11-25T01:01:38;8.50;99.90
43607;DHT22;29197;44.788;10.366;2022-11-25T01:04:27;8.50;99.90
43607;DHT22;29197;44.788;10.366;2022-11-25T01:07:17;8.60;99.90
43607;DHT22;29197;44.788;10.366;2022-11-25T01:10:09;8.60;99.90
43607;DHT22;29197;44.788;10.366;2022-11-25T01:12:58;8.60;99.90
43607;DHT22;29197;44.788;10.366;2022-11-25T01:15:47;8.70;99.90
43607;DHT22;29197;44.788;10.366;2022-11-25T01:18:36;8.80;99.90
43607;DHT22;29197;44.788;10.366;2022-11-25T01:21:28;8.80;99.90
43607;DHT22;29197;44.788;10.366;2022-11-25T01:24:17;8.90;99.90
43607;DHT22;29197;44.788;10.366;2022-11-25T01:27:08;8.90;99.90
43607;DHT22;29197;44.788;10.366;2022-11-25T01:29:57;8.70;99.90
43607;DHT22;29197;44.788;10.366;2022-11-25T01:32:46;8.70;99.90
43607;DHT22;29197;44.788;10.366;2022-11-25T01:35:36;8.80;99.90
43607;DHT22;29197;44.788;10.366;2022-11-25T01:38:25;8.90;99.90
43607;DHT22;29197;44.788;10.366;2022-11-25T01:41:14;8.80;99.90
43607;DHT22;29197;44.788;10.366;2022-11-25T01:44:07;8.80;99.90
43607;DHT22;29197;44.788;10.366;2022-11-25T01:47:05;8.80;99.90
43607;DHT22;29197;44.788;10.366;2022-11-25T01:50:00;8.90;99.90
43607;DHT22;29197;44.788;10.366;2022-11-25T01:52:51;8.90;99.90
43607;DHT22;29197;44.788;10.366;2022-11-25T01:55:42;8.90;99.90
43607;DHT22;29197;44.788;10.366;2022-11-25T01:58:34;9.00;99.90
43607;DHT22;29197;44.788;10.366;2022-11-25T02:01:26;8.90;99.90
43607;DHT22;29197;44.788;10.366;2022-11-25T02:04:18;8.60;99.90
43607;DHT22;29197;44.788;10.366;2022-11-25T02:07:11;8.60;99.90
43607;DHT22;29197;44.788;10.366;2022-11-25T02:10:03;8.60;99.90
43607;DHT22;29197;44.788;10.366;2022-11-25T02:12:54;8.60;99.90
43607;DHT22;29197;44.788;10.366;2022-11-25T02:15:45;8.60;99.90
43607;DHT22;29197;44.788;10.366;2022-11-25T02:18:36;8.70;99.90
43607;DHT22;29197;44.788;10.366;2022-11-25T02:21:29;8.80;99.90
43607;DHT22;29197;44.788;10.366;2022-11-25T02:24:24;8.90;99.90
43607;DHT22;29197;44.788;10.366;2022-11-25T02:27:16;8.90;99.90
43607;DHT22;29197;44.788;10.366;2022-11-25T02:30:07;9.00;99.90
43607;DHT22;29197;44.788;10.366;2022-11-25T02:32:58;9.00;99.90
43607;DHT22;29197;44.788;10.366;2022-11-25T02:35:49;9.00;99.90
43607;DHT22;29197;44.788;10.366;2022-11-25T02:38:42;9.10;99.90
43607;DHT22;29197;44.788;10.366;2022-11-25T02:41:33;9.10;99.90
43607;DHT22;29197;44.788;10.366;2022-11-25T02:44:26;9.10;99.90
43607;DHT22;29197;44.788;10.366;2022-11-25T02:47:16;9.10;99.90
43607;DHT22;29197;44.788;10.366;2022-11-25T02:50:06;9.10;99.90
43607;DHT22;29197;44.788;10.366;2022-11-25T02:52:56;9.10;99.90
43607;DHT22;29197;44.788;10.366;2022-11-25T02:55:47;9.10;99.90
43607;DHT22;29197;44.788;10.366;2022-11-25T02:58:36;9.10;99.90
43607;DHT22;29197;44.788;10.366;2022-11-25T03:01:27;9.10;99.90
43607;DHT22;29197;44.788;10.366;2022-11-25T03:04:18;9.10;99.90
43607;DHT22;29197;44.788;10.366;2022-11-25T03:07:07;9.10;99.90
43607;DHT22;29197;44.788;10.366;2022-11-25T03:09:56;9.10;99.90
43607;DHT22;29197;44.788;10.366;2022-11-25T03:12:46;9.00;99.90
43607;DHT22;29197;44.788;10.366;2022-11-25T03:15:35;9.00;99.90
43607;DHT22;29197;44.788;10.366;2022-11-25T03:18:26;8.90;99.90
43607;DHT22;29197;44.788;10.366;2022-11-25T03:21:16;8.90;99.90
43607;DHT22;29197;44.788;10.366;2022-11-25T03:24:05;8.70;99.90
43607;DHT22;29197;44.788;10.366;2022-11-25T03:26:55;8.80;99.90
43607;DHT22;29197;44.788;10.366;2022-11-25T03:29:44;8.80;99.90
43607;DHT22;29197;44.788;10.366;2022-11-25T03:32:33;8.80;99.90
43607;DHT22;29197;44.788;10.366;2022-11-25T03:35:24;8.70;99.90
43607;DHT22;29197;44.788;10.366;2022-11-25T03:38:13;8.90;99.90
43607;DHT22;29197;44.788;10.366;2022-11-25T03:41:02;8.90;99.90
43607;DHT22;29197;44.788;10.366;2022-11-25T03:43:51;8.90;99.90
43607;DHT22;29197;44.788;10.366;2022-11-25T03:46:41;8.90;99.90
43607;DHT22;29197;44.788;10.366;2022-11-25T03:49:30;8.90;99.90
43607;DHT22;29197;44.788;10.366;2022-11-25T03:52:22;8.90;99.90
43607;DHT22;29197;44.788;10.366;2022-11-25T03:55:12;8.90;99.90
43607;DHT22;29197;44.788;10.366;2022-11-25T03:58:03;8.80;99.90
43607;DHT22;29197;44.788;10.366;2022-11-25T04:00:52;8.70;99.90
43607;DHT22;29197;44.788;10.366;2022-11-25T04:03:42;8.70;99.90
43607;DHT22;29197;44.788;10.366;2022-11-25T04:06:31;8.70;99.90
43607;DHT22;29197;44.788;10.366;2022-11-25T04:09:22;8.70;99.90
43607;DHT22;29197;44.788;10.366;2022-11-25T04:12:12;8.70;99.90
43607;DHT22;29197;44.788;10.366;2022-11-25T04:15:24;8.70;99.90
43607;DHT22;29197;44.788;10.366;2022-11-25T04:18:13;8.80;99.90
43607;DHT22;29197;44.788;10.366;2022-11-25T04:21:03;8.70;99.90
43607;DHT22;29197;44.788;10.366;2022-11-25T04:23:52;8.70;99.90
43607;DHT22;29197;44.788;10.366;2022-11-25T04:26:42;8.70;99.90
43607;DHT22;29197;44.788;10.366;2022-11-25T04:29:32;8.70;99.90
43607;DHT22;29197;44.788;10.366;2022-11-25T04:32:22;8.70;99.90
43607;DHT22;29197;44.788;10.366;2022-11-25T04:35:12;8.70;99.90
43607;DHT22;29197;44.788;10.366;2022-11-25T04:38:01;8.70;99.90
43607;DHT22;29197;44.788;10.366;2022-11-25T04:40:51;8.70;99.90
43607;DHT22;29197;44.788;10.366;2022-11-25T04:43:41;8.60;99.90
43607;DHT22;29197;44.788;10.366;2022-11-25T04:46:35;8.50;99.90
43607;DHT22;29197;44.788;10.366;2022-11-25T04:49:25;8.40;99.90
43607;DHT22;29197;44.788;10.366;2022-11-25T04:52:14;8.40;99.90
43607;DHT22;29197;44.788;10.366;2022-11-25T04:55:05;8.40;99.90
43607;DHT22;29197;44.788;10.366;2022-11-25T04:57:54;8.40;99.90
43607;DHT22;29197;44.788;10.366;2022-11-25T05:00:45;8.40;99.90
43607;DHT22;29197;44.788;10.366;2022-11-25T05:03:34;8.50;99.90
43607;DHT22;29197;44.788;10.366;2022-11-25T05:06:23;8.50;99.90
43607;DHT22;29197;44.788;10.366;2022-11-25T05:09:13;8.50;99.90
43607;DHT22;29197;44.788;10.366;2022-11-25T05:12:02;8.60;99.90
43607;DHT22;29197;44.788;10.366;2022-11-25T05:14:52;8.60;99.90
43607;DHT22;29197;44.788;10.366;2022-11-25T05:17:42;8.60;99.90
43607;DHT22;29197;44.788;10.366;2022-11-25T05:20:32;8.60;99.90
43607;DHT22;29197;44.788;10.366;2022-11-25T05:23:21;8.50;99.90
43607;DHT22;29197;44.788;10.366;2022-11-25T05:26:10;8.50;99.90
43607;DHT22;29197;44.788;10.366;2022-11-25T05:28:59;8.50;99.90
43607;DHT22;29197;44.788;10.366;2022-11-25T05:31:49;8.50;99.90
43607;DHT22;29197;44.788;10.366;2022-11-25T05:34:40;8.50;99.90
43607;DHT22;29197;44.788;10.366;2022-11-25T05:37:29;8.60;99.90
43607;DHT22;29197;44.788;10.366;2022-11-25T05:40:18;8.50;99.90
43607;DHT22;29197;44.788;10.366;2022-11-25T05:43:07;8.30;99.90
43607;DHT22;29197;44.788;10.366;2022-11-25T05:45:57;8.30;99.90
43607;DHT22;29197;44.788;10.366;2022-11-25T05:48:46;8.30;99.90
43607;DHT22;29197;44.788;10.366;2022-11-25T05:51:37;8.30;99.90
43607;DHT22;29197;44.788;10.366;2022-11-25T05:54:27;8.30;99.90
43607;DHT22;29197;44.788;10.366;2022-11-25T05:57:16;8.30;99.90
43607;DHT22;29197;44.788;10.366;2022-11-25T06:00:06;8.30;99.90
43607;DHT22;29197;44.788;10.366;2022-11-25T06:02:55;8.20;99.90
43607;DHT22;29197;44.788;10.366;2022-11-25T06:05:45;8.10;99.90
43607;DHT22;29197;44.788;10.366;2022-11-25T06:08:36;8.00;99.90
43607;DHT22;29197;44.788;10.366;2022-11-25T06:11:26;8.00;99.90
43607;DHT22;29197;44.788;10.366;2022-11-25T06:14:15;8.10;99.90
43607;DHT22;29197;44.788;10.366;2022-11-25T06:17:06;8.10;99.90
43607;DHT22;29197;44.788;10.366;2022-11-25T06:19:55;8.10;99.90
43607;DHT22;29197;44.788;10.366;2022-11-25T06:22:44;8.20;99.90
43607;DHT22;29197;44.788;10.366;2022-11-25T06:25:36;8.20;99.90
43607;DHT22;29197;44.788;10.366;2022-11-25T06:28:26;8.10;99.90
43607;DHT22;29197;44.788;10.366;2022-11-25T06:31:16;8.10;99.90
43607;DHT22;29197;44.788;10.366;2022-11-25T06:34:06;8.20;99.90
43607;DHT22;29197;44.788;10.366;2022-11-25T06:36:56;8.20;99.90
43607;DHT22;29197;44.788;10.366;2022-11-25T06:39:45;8.10;99.90
43607;DHT22;29197;44.788;10.366;2022-11-25T06:42:36;8.10;99.90
43607;DHT22;29197;44.788;10.366;2022-11-25T06:45:26;8.10;99.90
43607;DHT22;29197;44.788;10.366;2022-11-25T06:48:15;8.20;99.90
43607;DHT22;29197;44.788;10.366;2022-11-25T06:51:06;8.10;99.90
43607;DHT22;29197;44.788;10.366;2022-11-25T06:53:55;8.10;99.90
43607;DHT22;29197;44.788;10.366;2022-11-25T06:56:44;8.10;99.90
43607;DHT22;29197;44.788;10.366;2022-11-25T06:59:41;8.20;99.90
43607;DHT22;29197;44.788;10.366;2022-11-25T07:02:30;8.20;99.90
43607;DHT22;29197;44.788;10.366;2022-11-25T07:05:29;8.20;99.90
43607;DHT22;29197;44.788;10.366;2022-11-25T07:08:18;8.10;99.90
43607;DHT22;29197;44.788;10.366;2022-11-25T07:11:17;7.90;99.90
43607;DHT22;29197;44.788;10.366;2022-11-25T07:14:09;7.90;99.90
43607;DHT22;29197;44.788;10.366;2022-11-25T07:16:59;7.90;99.90
43607;DHT22;29197;44.788;10.366;2022-11-25T07:19:53;7.90;99.90
43607;DHT22;29197;44.788;10.366;2022-11-25T07:22:44;7.60;99.90
43607;DHT22;29197;44.788;10.366;2022-11-25T07:25:33;7.50;99.90
43607;DHT22;29197;44.788;10.366;2022-11-25T07:28:23;7.60;99.90
43607;DHT22;29197;44.788;10.366;2022-11-25T07:31:15;7.60;99.90
43607;DHT22;29197;44.788;10.366;2022-11-25T07:34:19;7.70;99.90
43607;DHT22;29197;44.788;10.366;2022-11-25T07:37:09;7.80;99.90
43607;DHT22;29197;44.788;10.366;2022-11-25T07:39:59;7.80;99.90
43607;DHT22;29197;44.788;10.366;2022-11-25T07:42:48;7.90;99.90
43607;DHT22;29197;44.788;10.366;2022-11-25T07:45:36;7.80;99.90
43607;DHT22;29197;44.788;10.366;2022-11-25T07:48:26;7.90;99.90
43607;DHT22;29197;44.788;10.366;2022-11-25T07:51:18;7.80;99.90
43607;DHT22;29197;44.788;10.366;2022-11-25T07:54:10;7.70;99.90
43607;DHT22;29197;44.788;10.366;2022-11-25T07:56:59;7.70;99.90
43607;DHT22;29197;44.788;10.366;2022-11-25T07:59:49;7.80;99.90
43607;DHT22;29197;44.788;10.366;2022-11-25T08:02:38;8.00;99.90
43607;DHT22;29197;44.788;10.366;2022-11-25T08:05:27;8.10;99.90
43607;DHT22;29197;44.788;10.366;2022-11-25T08:08:18;8.20;99.90
43607;DHT22;29197;44.788;10.366;2022-11-25T08:11:09;8.30;99.90
43607;DHT22;29197;44.788;10.366;2022-11-25T08:13:58;8.40;99.90
43607;DHT22;29197;44.788;10.366;2022-11-25T08:16:48;8.50;99.90
43607;DHT22;29197;44.788;10.366;2022-11-25T08:19:37;8.60;99.90
43607;DHT22;29197;44.788;10.366;2022-11-25T08:22:27;8.60;99.90
43607;DHT22;29197;44.788;10.366;2022-11-25T08:25:18;8.70;99.90
43607;DHT22;29197;44.788;10.366;2022-11-25T08:28:07;8.80;99.90
43607;DHT22;29197;44.788;10.366;2022-11-25T08:31:01;8.80;99.90
43607;DHT22;29197;44.788;10.366;2022-11-25T08:33:51;9.00;99.90
43607;DHT22;29197;44.788;10.366;2022-11-25T08:36:40;9.10;99.90
43607;DHT22;29197;44.788;10.366;2022-11-25T08:39:35;9.30;99.90
43607;DHT22;29197;44.788;10.366;2022-11-25T08:42:40;9.40;99.90
43607;DHT22;29197;44.788;10.366;2022-11-25T08:45:29;9.50;99.90
43607;DHT22;29197;44.788;10.366;2022-11-25T08:48:20;9.70;99.90
43607;DHT22;29197;44.788;10.366;2022-11-25T08:51:11;9.70;99.90
43607;DHT22;29197;44.788;10.366;2022-11-25T08:54:01;9.70;99.90
43607;DHT22;29197;44.788;10.366;2022-11-25T08:56:51;9.80;99.90
43607;DHT22;29197;44.788;10.366;2022-11-25T08:59:43;9.80;99.90
43607;DHT22;29197;44.788;10.366;2022-11-25T09:02:32;10.10;99.90
43607;DHT22;29197;44.788;10.366;2022-11-25T09:05:21;9.90;99.90
43607;DHT22;29197;44.788;10.366;2022-11-25T09:08:10;9.90;99.90
43607;DHT22;29197;44.788;10.366;2022-11-25T09:11:00;10.00;99.90
43607;DHT22;29197;44.788;10.366;2022-11-25T09:13:50;10.00;99.90
43607;DHT22;29197;44.788;10.366;2022-11-25T09:16:40;10.10;99.90
43607;DHT22;29197;44.788;10.366;2022-11-25T09:19:30;10.10;99.90
43607;DHT22;29197;44.788;10.366;2022-11-25T09:22:20;10.20;99.90
43607;DHT22;29197;44.788;10.366;2022-11-25T09:25:09;10.30;99.90
43607;DHT22;29197;44.788;10.366;2022-11-25T09:27:58;10.50;99.90
43607;DHT22;29197;44.788;10.366;2022-11-25T09:30:47;10.90;99.90
43607;DHT22;29197;44.788;10.366;2022-11-25T09:33:38;11.30;99.90
43607;DHT22;29197;44.788;10.366;2022-11-25T09:36:28;11.60;99.90
43607;DHT22;29197;44.788;10.366;2022-11-25T09:39:17;11.70;99.90
43607;DHT22;29197;44.788;10.366;2022-11-25T09:42:21;11.60;99.90
43607;DHT22;29197;44.788;10.366;2022-11-25T09:45:45;11.50;99.90
43607;DHT22;29197;44.788;10.366;2022-11-25T09:48:58;11.40;99.90
43607;DHT22;29197;44.788;10.366;2022-11-25T09:52:00;11.30;99.90
43607;DHT22;29197;44.788;10.366;2022-11-25T09:54:56;11.20;99.90
43607;DHT22;29197;44.788;10.366;2022-11-25T09:58:00;11.30;99.90
43607;DHT22;29197;44.788;10.366;2022-11-25T10:00:52;11.30;99.90
43607;DHT22;29197;44.788;10.366;2022-11-25T10:03:44;11.30;99.90
43607;DHT22;29197;44.788;10.366;2022-11-25T10:06:41;11.40;99.90
43607;DHT22;29197;44.788;10.366;2022-11-25T10:09:39;11.50;99.90
43607;DHT22;29197;44.788;10.366;2022-11-25T10:12:31;11.60;99.90
43607;DHT22;29197;44.788;10.366;2022-11-25T10:15:25;11.70;99.90
43607;DHT22;29197;44.788;10.366;2022-11-25T10:18:17;11.90;99.90
43607;DHT22;29197;44.788;10.366;2022-11-25T10:21:08;11.90;99.90
43607;DHT22;29197;44.788;10.366;2022-11-25T10:24:01;12.00;99.90
43607;DHT22;29197;44.788;10.366;2022-11-25T10:26:54;12.00;99.90
43607;DHT22;29197;44.788;10.366;2022-11-25T10:29:48;12.00;99.90
43607;DHT22;29197;44.788;10.366;2022-11-25T10:32:44;12.10;99.90
43607;DHT22;29197;44.788;10.366;2022-11-25T10:35:38;12.10;99.90
43607;DHT22;29197;44.788;10.366;2022-11-25T10:38:33;12.10;99.90
43607;DHT22;29197;44.788;10.366;2022-11-25T10:41:28;12.20;99.90
43607;DHT22;29197;44.788;10.366;2022-11-25T10:44:23;12.30;99.90
43607;DHT22;29197;44.788;10.366;2022-11-25T10:47:32;12.30;99.90
43607;DHT22;29197;44.788;10.366;2022-11-25T10:50:29;12.30;99.90
43607;DHT22;29197;44.788;10.366;2022-11-25T10:53:23;12.30;99.90
43607;DHT22;29197;44.788;10.366;2022-11-25T10:56:17;12.30;99.90
43607;DHT22;29197;44.788;10.366;2022-11-25T10:59:14;12.30;99.90
43607;DHT22;29197;44.788;10.366;2022-11-25T11:02:15;12.30;99.90
43607;DHT22;29197;44.788;10.366;2022-11-25T11:05:18;12.20;99.90
43607;DHT22;29197;44.788;10.366;2022-11-25T11:08:17;12.20;99.90
43607;DHT22;29197;44.788;10.366;2022-11-25T11:11:13;12.20;99.90
43607;DHT22;29197;44.788;10.366;2022-11-25T11:14:16;12.30;99.90
43607;DHT22;29197;44.788;10.366;2022-11-25T11:17:29;12.40;99.90
43607;DHT22;29197;44.788;10.366;2022-11-25T11:20:24;12.40;99.90
43607;DHT22;29197;44.788;10.366;2022-11-25T11:23:14;12.40;99.90
43607;DHT22;29197;44.788;10.366;2022-11-25T11:26:05;12.50;99.90
43607;DHT22;29197;44.788;10.366;2022-11-25T11:28:58;12.50;99.90
43607;DHT22;29197;44.788;10.366;2022-11-25T11:31:53;12.60;99.90
43607;DHT22;29197;44.788;10.366;2022-11-25T11:34:58;12.70;99.90
43607;DHT22;29197;44.788;10.366;2022-11-25T11:37:52;12.70;99.90
43607;DHT22;29197;44.788;10.366;2022-11-25T11:40:45;12.70;99.90
43607;DHT22;29197;44.788;10.366;2022-11-25T11:43:54;12.70;99.90
43607;DHT22;29197;44.788;10.366;2022-11-25T11:47:04;12.70;99.90
43607;DHT22;29197;44.788;10.366;2022-11-25T11:50:16;12.70;99.90
43607;DHT22;29197;44.788;10.366;2022-11-25T11:53:10;12.70;99.90
43607;DHT22;29197;44.788;10.366;2022-11-25T11:56:05;12.70;99.90
43607;DHT22;29197;44.788;10.366;2022-11-25T11:59:44;12.70;99.90
43607;DHT22;29197;44.788;10.366;2022-11-25T12:02:50;12.70;99.90
43607;DHT22;29197;44.788;10.366;2022-11-25T12:05:42;12.70;99.90
43607;DHT22;29197;44.788;10.366;2022-11-25T12:08:47;12.60;99.90
43607;DHT22;29197;44.788;10.366;2022-11-25T12:11:42;12.60;99.90
43607;DHT22;29197;44.788;10.366;2022-11-25T12:14:38;12.50;99.90
43607;DHT22;29197;44.788;10.366;2022-11-25T12:17:34;12.40;99.90
43607;DHT22;29197;44.788;10.366;2022-11-25T12:20:34;12.40;99.90
43607;DHT22;29197;44.788;10.366;2022-11-25T12:23:29;12.30;99.90
43607;DHT22;29197;44.788;10.366;2022-11-25T12:26:22;12.20;99.90
43607;DHT22;29197;44.788;10.366;2022-11-25T12:29:22;12.10;99.90
43607;DHT22;29197;44.788;10.366;2022-11-25T12:32:38;12.00;99.90
43607;DHT22;29197;44.788;10.366;2022-11-25T12:35:39;11.90;99.90
43607;DHT22;29197;44.788;10.366;2022-11-25T12:38:37;11.80;99.90
43607;DHT22;29197;44.788;10.366;2022-11-25T12:41:36;11.80;99.90
43607;DHT22;29197;44.788;10.366;2022-11-25T12:44:30;11.70;99.90
43607;DHT22;29197;44.788;10.366;2022-11-25T12:47:21;11.70;99.90
43607;DHT22;29197;44.788;10.366;2022-11-25T12:50:15;11.70;99.90
43607;DHT22;29197;44.788;10.366;2022-11-25T12:53:09;11.70;99.90
43607;DHT22;29197;44.788;10.366;2022-11-25T12:56:04;11.60;99.90
43607;DHT22;29197;44.788;10.366;2022-11-25T12:59:12;11.60;99.90
43607;DHT22;29197;44.788;10.366;2022-11-25T13:02:22;11.60;99.90
43607;DHT22;29197;44.788;10.366;2022-11-25T13:05:34;11.60;99.90
43607;DHT22;29197;44.788;10.366;2022-11-25T13:08:50;11.60;99.90
43607;DHT22;29197;44.788;10.366;2022-11-25T13:12:05;11.60;99.90
43607;DHT22;29197;44.788;10.366;2022-11-25T13:15:21;11.50;99.90
43607;DHT22;29197;44.788;10.366;2022-11-25T13:18:15;11.60;99.90
43607;DHT22;29197;44.788;10.366;2022-11-25T13:21:06;11.50;99.90
43607;DHT22;29197;44.788;10.366;2022-11-25T13:23:57;11.60;99.90
43607;DHT22;29197;44.788;10.366;2022-11-25T13:26:48;11.60;99.90
43607;DHT22;29197;44.788;10.366;2022-11-25T13:29:58;11.50;99.90
43607;DHT22;29197;44.788;10.366;2022-11-25T13:32:48;11.50;99.90
43607;DHT22;29197;44.788;10.366;2022-11-25T13:35:49;11.50;99.90
43607;DHT22;29197;44.788;10.366;2022-11-25T13:39:02;11.50;99.90
43607;DHT22;29197;44.788;10.366;2022-11-25T13:42:02;11.50;99.90
43607;DHT22;29197;44.788;10.366;2022-11-25T13:44:53;11.50;99.90
43607;DHT22;29197;44.788;10.366;2022-11-25T13:47:45;11.60;99.90
43607;DHT22;29197;44.788;10.366;2022-11-25T13:50:38;11.70;99.90
43607;DHT22;29197;44.788;10.366;2022-11-25T13:53:51;11.70;99.90
43607;DHT22;29197;44.788;10.366;2022-11-25T13:56:42;11.70;99.90
43607;DHT22;29197;44.788;10.366;2022-11-25T13:59:52;11.70;99.90
43607;DHT22;29197;44.788;10.366;2022-11-25T14:02:42;11.60;99.90
43607;DHT22;29197;44.788;10.366;2022-11-25T14:05:44;11.60;99.90
43607;DHT22;29197;44.788;10.366;2022-11-25T14:08:40;11.60;99.90
43607;DHT22;29197;44.788;10.366;2022-11-25T14:11:39;11.50;99.90
43607;DHT22;29197;44.788;10.366;2022-11-25T14:15:07;11.50;99.90
43607;DHT22;29197;44.788;10.366;2022-11-25T14:18:13;11.50;99.90
43607;DHT22;29197;44.788;10.366;2022-11-25T14:21:40;11.50;99.90
43607;DHT22;29197;44.788;10.366;2022-11-25T14:24:36;11.50;99.90
43607;DHT22;29197;44.788;10.366;2022-11-25T14:27:28;11.50;99.90
43607;DHT22;29197;44.788;10.366;2022-11-25T14:30:24;11.50;99.90
43607;DHT22;29197;44.788;10.366;2022-11-25T14:33:16;11.60;99.90
43607;DHT22;29197;44.788;10.366;2022-11-25T14:36:09;11.50;99.90
43607;DHT22;29197;44.788;10.366;2022-11-25T14:39:02;11.50;99.90
43607;DHT22;29197;44.788;10.366;2022-11-25T14:41:58;11.50;99.90
43607;DHT22;29197;44.788;10.366;2022-11-25T14:44:49;11.50;99.90
43607;DHT22;29197;44.788;10.366;2022-11-25T14:47:40;11.40;99.90
43607;DHT22;29197;44.788;10.366;2022-11-25T14:50:30;11.40;99.90
43607;DHT22;29197;44.788;10.366;2022-11-25T14:53:21;11.30;99.90
43607;DHT22;29197;44.788;10.366;2022-11-25T14:56:15;11.20;99.90
43607;DHT22;29197;44.788;10.366;2022-11-25T14:59:07;11.20;99.90
43607;DHT22;29197;44.788;10.366;2022-11-25T15:01:57;11.30;99.90
43607;DHT22;29197;44.788;10.366;2022-11-25T15:04:48;11.30;99.90
43607;DHT22;29197;44.788;10.366;2022-11-25T15:07:40;11.30;99.90
43607;DHT22;29197;44.788;10.366;2022-11-25T15:10:37;11.30;99.90
43607;DHT22;29197;44.788;10.366;2022-11-25T15:13:30;11.30;99.90
43607;DHT22;29197;44.788;10.366;2022-11-25T15:16:22;11.30;99.90
43607;DHT22;29197;44.788;10.366;2022-11-25T15:19:16;11.30;99.90
43607;DHT22;29197;44.788;10.366;2022-11-25T15:22:10;11.30;99.90
43607;DHT22;29197;44.788;10.366;2022-11-25T15:25:13;11.30;99.90
43607;DHT22;29197;44.788;10.366;2022-11-25T15:28:12;11.30;99.90
43607;DHT22;29197;44.788;10.366;2022-11-25T15:31:08;11.30;99.90
43607;DHT22;29197;44.788;10.366;2022-11-25T15:34:00;11.30;99.90
43607;DHT22;29197;44.788;10.366;2022-11-25T15:36:51;11.20;99.90
43607;DHT22;29197;44.788;10.366;2022-11-25T15:39:43;11.20;99.90
43607;DHT22;29197;44.788;10.366;2022-11-25T15:42:33;11.20;99.90
43607;DHT22;29197;44.788;10.366;2022-11-25T15:45:23;11.10;99.90
43607;DHT22;29197;44.788;10.366;2022-11-25T15:48:16;11.10;99.90
43607;DHT22;29197;44.788;10.366;2022-11-25T15:51:35;11.10;99.90
43607;DHT22;29197;44.788;10.366;2022-11-25T15:54:27;11.00;99.90
43607;DHT22;29197;44.788;10.366;2022-11-25T15:57:22;11.00;99.90
43607;DHT22;29197;44.788;10.366;2022-11-25T16:00:16;10.90;99.90
43607;DHT22;29197;44.788;10.366;2022-11-25T16:03:17;11.00;99.90
43607;DHT22;29197;44.788;10.366;2022-11-25T16:06:18;11.00;99.90
43607;DHT22;29197;44.788;10.366;2022-11-25T16:09:19;11.00;99.90
43607;DHT22;29197;44.788;10.366;2022-11-25T16:12:15;11.00;99.90
43607;DHT22;29197;44.788;10.366;2022-11-25T16:15:15;10.90;99.90
43607;DHT22;29197;44.788;10.366;2022-11-25T16:18:09;10.90;99.90
43607;DHT22;29197;44.788;10.366;2022-11-25T16:21:21;10.90;99.90
43607;DHT22;29197;44.788;10.366;2022-11-25T16:24:24;10.90;99.90
43607;DHT22;29197;44.788;10.366;2022-11-25T16:27:17;10.90;99.90
43607;DHT22;29197;44.788;10.366;2022-11-25T16:30:16;10.80;99.90
43607;DHT22;29197;44.788;10.366;2022-11-25T16:33:08;10.80;99.90
43607;DHT22;29197;44.788;10.366;2022-11-25T16:35:59;10.80;99.90
43607;DHT22;29197;44.788;10.366;2022-11-25T16:38:54;10.70;99.90
43607;DHT22;29197;44.788;10.366;2022-11-25T16:41:53;10.70;99.90
43607;DHT22;29197;44.788;10.366;2022-11-25T16:44:45;10.70;99.90
43607;DHT22;29197;44.788;10.366;2022-11-25T16:47:38;10.70;99.90
43607;DHT22;29197;44.788;10.366;2022-11-25T16:50:27;10.70;99.90
43607;DHT22;29197;44.788;10.366;2022-11-25T16:53:17;10.70;99.90
43607;DHT22;29197;44.788;10.366;2022-11-25T16:56:10;10.70;99.90
43607;DHT22;29197;44.788;10.366;2022-11-25T16:59:00;10.70;99.90
43607;DHT22;29197;44.788;10.366;2022-11-25T17:01:50;10.60;99.90
43607;DHT22;29197;44.788;10.366;2022-11-25T17:04:42;10.60;99.90
43607;DHT22;29197;44.788;10.366;2022-11-25T17:07:31;10.60;99.90
43607;DHT22;29197;44.788;10.366;2022-11-25T17:10:21;10.60;99.90
43607;DHT22;29197;44.788;10.366;2022-11-25T17:13:15;10.60;99.90
43607;DHT22;29197;44.788;10.366;2022-11-25T17:16:07;10.60;99.90
43607;DHT22;29197;44.788;10.366;2022-11-25T17:18:58;10.60;99.90
43607;DHT22;29197;44.788;10.366;2022-11-25T17:21:49;10.60;99.90
43607;DHT22;29197;44.788;10.366;2022-11-25T17:24:39;10.60;99.90
43607;DHT22;29197;44.788;10.366;2022-11-25T17:27:29;10.60;99.90
43607;DHT22;29197;44.788;10.366;2022-11-25T17:30:20;10.60;99.90
43607;DHT22;29197;44.788;10.366;2022-11-25T17:33:12;10.60;99.90
43607;DHT22;29197;44.788;10.366;2022-11-25T17:36:03;10.60;99.90
43607;DHT22;29197;44.788;10.366;2022-11-25T17:38:55;10.60;99.90
43607;DHT22;29197;44.788;10.366;2022-11-25T17:41:46;10.60;99.90
43607;DHT22;29197;44.788;10.366;2022-11-25T17:44:36;10.60;99.90
43607;DHT22;29197;44.788;10.366;2022-11-25T17:47:27;10.70;99.90
43607;DHT22;29197;44.788;10.366;2022-11-25T17:50:18;10.70;99.90
43607;DHT22;29197;44.788;10.366;2022-11-25T17:53:08;10.70;99.90
43607;DHT22;29197;44.788;10.366;2022-11-25T17:55:58;10.70;99.90
43607;DHT22;29197;44.788;10.366;2022-11-25T17:58:48;10.70;99.90
43607;DHT22;29197;44.788;10.366;2022-11-25T18:01:37;10.80;99.90
43607;DHT22;29197;44.788;10.366;2022-11-25T18:04:29;10.80;99.90
43607;DHT22;29197;44.788;10.366;2022-11-25T18:07:22;10.30;99.90